createdAt,value
2018-10-09T00:00:34.000Z,1014.217
2018-10-09T00:10:34.000Z,1014.035
2018-10-09T00:20:34.000Z,1013.932
2018-10-09T00:30:34.000Z,1014.094
2018-10-09T00:40:34.000Z,1014.167
2018-10-09T00:50:34.000Z,1014.181
2018-10-09T01:00:34.000Z,1014.228
2018-10-09T01:10:34.000Z,1014.264
2018-10-09T01:20:34.000Z,1014.43
2018-10-09T01:30:34.000Z,1014.525
2018-10-09T01:40:34.000Z,1014.403
2018-10-09T01:50:34.000Z,1014.275
2018-10-09T02:00:34.000Z,1014.211
2018-10-09T02:10:34.000Z,1014.03
2018-10-09T02:20:34.000Z,1013.987
2018-10-09T02:30:34.000Z,1013.879
2018-10-09T02:40:34.000Z,1013.876
2018-10-09T02:50:34.000Z,1013.726
2018-10-09T03:00:34.000Z,1013.715
2018-10-09T03:10:34.000Z,1013.587
2018-10-09T03:20:34.000Z,1013.675
2018-10-09T03:30:34.000Z,1013.673
2018-10-09T03:40:34.000Z,1013.544
2018-10-09T03:50:34.000Z,1013.723
2018-10-09T04:00:34.000Z,1013.654
2018-10-09T04:10:34.000Z,1013.644
2018-10-09T04:20:34.000Z,1013.686
2018-10-09T04:30:34.000Z,1013.803
2018-10-09T04:40:34.000Z,1013.9
2018-10-09T04:50:34.000Z,1013.866
2018-10-09T05:00:34.000Z,1013.877
2018-10-09T05:10:34.000Z,1013.956
2018-10-09T05:20:35.000Z,1014.002
2018-10-09T05:30:34.000Z,1013.822
2018-10-09T05:40:35.000Z,1013.857
2018-10-09T05:50:34.000Z,1014.003
2018-10-09T06:00:34.000Z,1014.014
2018-10-09T06:10:34.000Z,1014.038
2018-10-09T06:20:35.000Z,1014.078
2018-10-09T06:30:35.000Z,1014.218
2018-10-09T06:40:35.000Z,1014.333
2018-10-09T06:50:35.000Z,1014.612
2018-10-09T07:00:35.000Z,1014.588
2018-10-09T07:10:35.000Z,1014.584
2018-10-09T07:20:35.000Z,1014.722
2018-10-09T07:30:35.000Z,1014.828
2018-10-09T07:40:35.000Z,1014.853
2018-10-09T07:50:35.000Z,1014.808
2018-10-09T08:00:35.000Z,1014.957
2018-10-09T08:10:35.000Z,1015.016
2018-10-09T08:20:35.000Z,1014.879
2018-10-09T08:30:35.000Z,1015.115
2018-10-09T08:40:35.000Z,1015.243
2018-10-09T08:50:35.000Z,1015.33
2018-10-09T09:00:35.000Z,1015.376
2018-10-09T09:10:35.000Z,1015.404
2018-10-09T09:20:35.000Z,1015.434
2018-10-09T09:30:35.000Z,1015.424
2018-10-09T09:40:35.000Z,1015.393
2018-10-09T09:50:35.000Z,1015.3
2018-10-09T10:00:35.000Z,1015.227
2018-10-09T10:10:35.000Z,1015.213
2018-10-09T10:20:35.000Z,1015.11
2018-10-09T10:30:35.000Z,1015.006
2018-10-09T10:40:35.000Z,1015.024
2018-10-09T10:50:35.000Z,1014.921
2018-10-09T11:00:35.000Z,1014.781
2018-10-09T11:10:35.000Z,1014.819
2018-10-09T11:20:35.000Z,1014.775
2018-10-09T11:30:35.000Z,1014.711
2018-10-09T11:40:35.000Z,1014.609
2018-10-09T11:50:35.000Z,1014.557
2018-10-09T12:00:35.000Z,1014.532
2018-10-09T12:10:35.000Z,1014.495
2018-10-09T12:20:35.000Z,1014.39
2018-10-09T12:30:35.000Z,1014.319
2018-10-09T12:40:35.000Z,1014.194
2018-10-09T12:50:35.000Z,1014.133
2018-10-09T13:00:35.000Z,1014.112
2018-10-09T13:10:35.000Z,1014.023
2018-10-09T13:30:35.000Z,1013.902
2018-10-09T13:40:35.000Z,1013.851
2018-10-09T13:50:35.000Z,1013.771
2018-10-09T14:00:35.000Z,1013.706
2018-10-09T14:10:35.000Z,1013.652
2018-10-09T14:20:35.000Z,1013.618
2018-10-09T14:30:35.000Z,1013.517
2018-10-09T14:40:36.000Z,1013.534
2018-10-09T14:50:36.000Z,1013.584
2018-10-09T15:10:36.000Z,1013.638
2018-10-09T15:20:36.000Z,1013.614
2018-10-09T15:30:36.000Z,1013.666
2018-10-09T15:40:36.000Z,1013.726
2018-10-09T15:50:36.000Z,1013.719
2018-10-09T16:00:36.000Z,1013.668
2018-10-09T16:10:36.000Z,1013.6
2018-10-09T16:30:36.000Z,1013.698
2018-10-09T16:40:36.000Z,1013.714
2018-10-09T16:50:36.000Z,1013.715
2018-10-09T17:00:37.000Z,1013.764
2018-10-09T17:10:36.000Z,1013.811
2018-10-09T17:20:36.000Z,1013.824
2018-10-09T17:30:36.000Z,1013.825
2018-10-09T17:50:36.000Z,1013.906
2018-10-09T18:00:36.000Z,1013.954
2018-10-09T18:10:36.000Z,1013.963
2018-10-09T18:20:36.000Z,1013.98
2018-10-09T18:30:36.000Z,1013.95
2018-10-09T18:40:36.000Z,1013.934
2018-10-09T18:50:36.000Z,1013.986
2018-10-09T19:00:36.000Z,1013.949
2018-10-09T19:10:36.000Z,1013.991
2018-10-09T19:20:36.000Z,1014.013
2018-10-09T19:30:36.000Z,1014.1
2018-10-09T19:50:36.000Z,1014.151
2018-10-09T20:00:38.000Z,1014.163
2018-10-09T20:10:36.000Z,1014.166
2018-10-09T20:20:36.000Z,1014.177
2018-10-09T20:30:36.000Z,1014.266
2018-10-09T20:40:36.000Z,1014.207
2018-10-09T20:50:36.000Z,1014.163
2018-10-09T21:00:36.000Z,1014.216
2018-10-09T21:10:36.000Z,1014.193
2018-10-09T21:20:36.000Z,1014.17
2018-10-09T21:30:36.000Z,1014.093
2018-10-09T21:40:36.000Z,1014.104
2018-10-09T21:50:36.000Z,1014.057
2018-10-09T22:00:36.000Z,1014.072
2018-10-09T22:10:36.000Z,1014.135
2018-10-09T22:20:36.000Z,1014.138
2018-10-09T22:30:36.000Z,1014.103
2018-10-09T22:40:36.000Z,1014.05
2018-10-09T22:50:37.000Z,1014.044
2018-10-09T23:00:36.000Z,1014.043
2018-10-09T23:10:37.000Z,1013.978
2018-10-09T23:20:37.000Z,1013.98
2018-10-09T23:30:37.000Z,1014.035
2018-10-09T23:40:37.000Z,1013.996
2018-10-09T23:50:38.000Z,1013.995
